createdAt,value
2018-09-01T00:01:46.459Z,16.13
2018-09-01T00:04:15.347Z,20.30
2018-09-01T00:06:44.232Z,16.10
2018-09-01T00:09:13.167Z,21.57
2018-09-01T00:11:43.049Z,19.77
2018-09-01T00:14:12.384Z,20.10
2018-09-01T00:16:41.359Z,20.40
2018-09-01T00:19:10.341Z,21.93
2018-09-01T00:21:39.461Z,16.30
2018-09-01T00:24:10.506Z,22.27
2018-09-01T00:26:41.669Z,18.23
2018-09-01T00:29:10.593Z,19.70
2018-09-01T00:31:39.527Z,24.13
2018-09-01T00:34:09.139Z,24.30
2018-09-01T00:36:37.961Z,23.60
2018-09-01T00:39:09.381Z,22.30
2018-09-01T00:41:38.356Z,20.83
2018-09-01T00:44:07.471Z,26.87
2018-09-01T00:46:36.841Z,21.10
2018-09-01T00:49:05.696Z,17.93
2018-09-01T00:51:34.708Z,20.30
2018-09-01T00:54:03.900Z,20.27
2018-09-01T00:56:32.993Z,22.47
2018-09-01T00:59:01.936Z,23.33
2018-09-01T01:01:30.849Z,19.57
2018-09-01T01:03:59.851Z,26.03
2018-09-01T01:06:28.743Z,21.67
2018-09-01T01:08:57.687Z,18.77
2018-09-01T01:11:26.717Z,19.50
2018-09-01T01:13:55.680Z,20.90
2018-09-01T01:16:24.569Z,18.50
2018-09-01T01:18:53.491Z,21.33
2018-09-01T01:21:22.716Z,27.27
2018-09-01T01:23:51.813Z,18.73
2018-09-01T01:26:20.862Z,21.37
2018-09-01T01:28:49.811Z,19.30
2018-09-01T01:31:19.125Z,26.37
2018-09-01T01:33:48.085Z,19.83
2018-09-01T01:36:17.122Z,23.07
2018-09-01T01:38:45.949Z,18.10
2018-09-01T01:41:14.920Z,17.67
2018-09-01T01:43:44.017Z,18.87
2018-09-01T01:46:13.145Z,21.03
2018-09-01T01:48:42.195Z,23.97
2018-09-01T01:51:11.266Z,21.50
2018-09-01T01:53:40.152Z,24.30
2018-09-01T01:56:08.964Z,24.07
2018-09-01T01:58:37.958Z,24.33
2018-09-01T02:01:07.404Z,25.50
2018-09-01T02:03:36.412Z,23.13
2018-09-01T02:06:05.442Z,30.20
2018-09-01T02:08:34.954Z,24.93
2018-09-01T02:11:03.972Z,22.30
2018-09-01T02:13:32.899Z,24.00
2018-09-01T02:16:02.132Z,25.83
2018-09-01T02:18:31.155Z,22.37
2018-09-01T02:21:00.142Z,25.30
2018-09-01T02:23:29.440Z,21.83
2018-09-01T02:25:58.315Z,22.93
2018-09-01T02:28:27.379Z,27.30
2018-09-01T02:30:56.730Z,23.13
2018-09-01T02:33:25.652Z,27.10
2018-09-01T02:35:54.496Z,27.30
2018-09-01T02:38:24.006Z,22.00
2018-09-01T02:40:52.873Z,21.87
2018-09-01T02:43:21.863Z,25.13
2018-09-01T02:45:51.131Z,20.47
2018-09-01T02:48:20.038Z,21.87
2018-09-01T02:50:49.125Z,25.07
2018-09-01T02:53:19.394Z,22.97
2018-09-01T02:55:48.391Z,23.30
2018-09-01T02:58:17.383Z,21.80
2018-09-01T03:00:46.413Z,24.97
2018-09-01T03:03:15.354Z,22.37
2018-09-01T03:05:44.198Z,23.70
2018-09-01T03:08:13.786Z,26.47
2018-09-01T03:10:43.211Z,31.07
2018-09-01T03:13:12.112Z,23.13
2018-09-01T03:15:41.093Z,24.93
2018-09-01T03:18:10.256Z,25.07
2018-09-01T03:20:39.250Z,22.10
2018-09-01T03:23:08.911Z,17.87
2018-09-01T03:25:38.072Z,26.50
2018-09-01T03:28:07.140Z,24.43
2018-09-01T03:30:36.078Z,22.63
2018-09-01T03:33:05.300Z,27.77
2018-09-01T03:35:34.264Z,24.47
2018-09-01T03:38:03.677Z,24.27
2018-09-01T03:40:32.624Z,24.43
2018-09-01T03:43:01.744Z,23.80
2018-09-01T03:45:31.742Z,23.73
2018-09-01T03:48:00.708Z,26.47
2018-09-01T03:50:29.737Z,28.10
2018-09-01T03:52:59.042Z,25.77
2018-09-01T03:55:27.925Z,25.57
2018-09-01T03:57:56.932Z,25.97
2018-09-01T04:00:27.734Z,28.20
2018-09-01T04:02:57.811Z,26.90
2018-09-01T04:06:29.823Z,37.97
2018-09-01T04:08:58.704Z,28.33
2018-09-01T04:11:27.644Z,29.77
2018-09-01T04:13:56.584Z,32.03
2018-09-01T04:16:25.693Z,35.80
2018-09-01T04:18:54.825Z,33.07
2018-09-01T04:21:24.124Z,38.17
2018-09-01T04:23:53.145Z,39.13
2018-09-01T04:26:22.168Z,27.10
2018-09-01T04:28:51.215Z,25.97
2018-09-01T04:31:20.221Z,24.17
2018-09-01T04:33:49.199Z,21.43
2018-09-01T04:36:18.105Z,26.63
2018-09-01T04:38:46.953Z,25.33
2018-09-01T04:41:16.051Z,23.07
2018-09-01T04:43:45.532Z,23.43
2018-09-01T04:46:14.541Z,27.20
2018-09-01T04:48:43.353Z,21.73
2018-09-01T04:51:12.676Z,22.37
2018-09-01T04:53:41.563Z,24.00
2018-09-01T04:56:10.669Z,25.53
2018-09-01T04:58:39.695Z,21.53
2018-09-01T05:01:08.707Z,24.20
2018-09-01T05:03:37.549Z,20.97
2018-09-01T05:06:07.019Z,20.17
2018-09-01T05:08:35.985Z,20.90
2018-09-01T05:11:05.058Z,22.27
2018-09-01T05:13:34.013Z,21.07
2018-09-01T05:16:03.325Z,21.37
2018-09-01T05:18:32.230Z,21.37
2018-09-01T05:21:01.561Z,19.03
2018-09-01T05:23:30.469Z,23.83
2018-09-01T05:25:59.446Z,21.53
2018-09-01T05:28:28.898Z,21.23
2018-09-01T05:30:57.785Z,19.90
2018-09-01T05:33:26.648Z,16.80
2018-09-01T05:35:55.635Z,18.00
2018-09-01T05:38:24.570Z,22.90
2018-09-01T05:40:53.512Z,24.37
2018-09-01T05:43:23.241Z,19.87
2018-09-01T05:45:52.068Z,18.70
2018-09-01T05:48:21.098Z,17.33
2018-09-01T05:50:51.144Z,16.23
2018-09-01T05:53:20.078Z,15.90
2018-09-01T05:55:49.185Z,18.67
2018-09-01T05:58:18.194Z,18.77
2018-09-01T06:00:48.345Z,18.10
2018-09-01T06:03:17.782Z,17.73
2018-09-01T06:05:47.931Z,15.33
2018-09-01T06:08:17.161Z,21.23
2018-09-01T06:10:45.979Z,17.90
2018-09-01T06:13:15.426Z,14.00
2018-09-01T06:15:44.388Z,20.23
2018-09-01T06:18:13.425Z,18.13
2018-09-01T06:20:42.327Z,15.93
2018-09-01T06:23:11.367Z,20.07
2018-09-01T06:25:40.233Z,18.73
2018-09-01T06:28:13.877Z,16.60
2018-09-01T06:30:45.255Z,15.93
2018-09-01T06:33:14.497Z,14.40
2018-09-01T06:35:43.458Z,18.23
2018-09-01T06:38:12.645Z,19.07
2018-09-01T06:40:42.165Z,16.30
2018-09-01T06:43:11.123Z,20.17
2018-09-01T06:45:39.895Z,13.53
2018-09-01T06:48:08.925Z,16.00
2018-09-01T06:50:38.030Z,15.37
2018-09-01T06:53:07.042Z,15.43
2018-09-01T06:55:35.858Z,15.27
2018-09-01T06:58:04.926Z,18.32
2018-09-01T07:00:33.909Z,15.15
2018-09-01T07:03:02.837Z,14.68
2018-09-01T07:05:31.838Z,15.13
2018-09-01T07:08:01.269Z,16.32
2018-09-01T07:10:30.410Z,18.00
2018-09-01T07:12:59.582Z,15.38
2018-09-01T07:15:28.515Z,17.05
2018-09-01T07:17:57.977Z,14.60
2018-09-01T07:20:27.059Z,15.95
2018-09-01T07:22:56.007Z,15.48
2018-09-01T07:25:25.054Z,16.27
2018-09-01T07:27:53.958Z,15.58
2018-09-01T07:30:22.861Z,12.33
2018-09-01T07:32:52.112Z,14.58
2018-09-01T07:35:20.960Z,11.75
2018-09-01T07:37:49.885Z,16.67
2018-09-01T07:40:19.385Z,13.48
2018-09-01T07:42:48.349Z,14.25
2018-09-01T07:45:17.836Z,14.47
2018-09-01T07:47:47.380Z,15.98
2018-09-01T07:50:16.437Z,12.63
2018-09-01T07:52:45.524Z,14.63
2018-09-01T07:55:14.461Z,13.98
2018-09-01T07:57:43.569Z,16.73
2018-09-01T08:00:12.657Z,12.37
2018-09-01T08:02:41.704Z,15.20
2018-09-01T08:05:10.565Z,16.30
2018-09-01T08:07:39.537Z,16.10
2018-09-01T08:10:10.604Z,13.62
2018-09-01T08:12:39.920Z,13.90
2018-09-01T08:15:09.315Z,14.63
2018-09-01T08:17:38.541Z,15.58
2018-09-01T08:20:07.625Z,15.63
2018-09-01T08:22:37.070Z,18.30
2018-09-01T08:25:06.034Z,14.23
2018-09-01T08:27:35.334Z,21.62
2018-09-01T08:30:04.499Z,15.05
2018-09-01T08:32:33.689Z,13.83
2018-09-01T08:35:02.678Z,18.05
2018-09-01T08:37:31.649Z,16.45
2018-09-01T08:40:00.948Z,15.28
2018-09-01T08:42:29.960Z,12.90
2018-09-01T08:44:58.989Z,18.02
2018-09-01T08:47:28.600Z,13.62
2018-09-01T08:49:57.470Z,13.28
2018-09-01T08:52:26.384Z,16.82
2018-09-01T08:54:55.703Z,13.83
2018-09-01T08:57:24.705Z,11.83
2018-09-01T08:59:53.723Z,12.93
2018-09-01T09:02:23.184Z,17.87
2018-09-01T09:04:52.111Z,12.25
2018-09-01T09:07:20.949Z,10.65
2018-09-01T09:09:49.939Z,14.90
2018-09-01T09:12:18.938Z,14.03
2018-09-01T09:14:47.892Z,14.10
2018-09-01T09:17:17.315Z,13.03
2018-09-01T09:19:46.250Z,12.13
2018-09-01T09:22:15.266Z,14.30
2018-09-01T09:24:44.269Z,12.43
2018-09-01T09:27:13.264Z,12.47
2018-09-01T09:29:42.130Z,11.33
2018-09-01T09:32:11.146Z,14.78
2018-09-01T09:34:40.747Z,15.93
2018-09-01T09:37:09.613Z,14.38
2018-09-01T09:39:38.670Z,15.20
2018-09-01T09:42:07.600Z,12.75
2018-09-01T09:44:36.567Z,14.20
2018-09-01T09:47:06.000Z,16.27
2018-09-01T09:49:35.329Z,11.88
2018-09-01T09:52:04.310Z,10.43
2018-09-01T09:54:33.637Z,12.30
2018-09-01T09:57:03.218Z,13.70
2018-09-01T09:59:32.206Z,10.72
2018-09-01T10:02:03.459Z,15.05
2018-09-01T10:04:32.594Z,13.50
2018-09-01T10:07:01.431Z,13.18
2018-09-01T10:09:30.417Z,13.93
2018-09-01T10:11:59.486Z,11.95
2018-09-01T10:14:28.537Z,15.08
2018-09-01T10:16:57.797Z,16.62
2018-09-01T10:19:26.695Z,13.80
2018-09-01T10:21:55.709Z,12.23
2018-09-01T10:24:24.772Z,11.43
2018-09-01T10:26:53.747Z,13.08
2018-09-01T10:29:22.755Z,12.73
2018-09-01T10:31:52.026Z,13.40
2018-09-01T10:34:21.054Z,12.73
2018-09-01T10:36:50.108Z,16.73
2018-09-01T10:39:19.420Z,12.60
2018-09-01T10:41:48.517Z,14.23
2018-09-01T10:44:17.565Z,11.65
2018-09-01T10:46:46.735Z,9.98
2018-09-01T10:49:15.721Z,12.15
2018-09-01T10:51:44.693Z,15.35
2018-09-01T10:54:13.830Z,13.93
2018-09-01T10:56:42.639Z,15.40
2018-09-01T10:59:11.830Z,11.53
2018-09-01T11:01:40.805Z,16.48
2018-09-01T11:04:09.779Z,12.95
2018-09-01T11:06:38.759Z,12.23
2018-09-01T11:09:10.361Z,15.55
2018-09-01T11:11:41.744Z,10.45
2018-09-01T11:14:11.063Z,12.53
2018-09-01T11:16:40.076Z,12.88
2018-09-01T11:19:09.191Z,18.40
2018-09-01T11:21:39.582Z,12.33
2018-09-01T11:24:08.407Z,13.72
2018-09-01T11:26:37.535Z,11.78
2018-09-01T11:29:07.417Z,15.80
2018-09-01T11:31:38.970Z,12.20
2018-09-01T11:34:12.163Z,11.40
2018-09-01T11:36:45.312Z,14.93
2018-09-01T11:39:17.223Z,15.55
2018-09-01T11:41:46.531Z,13.60
2018-09-01T11:44:15.856Z,11.97
2018-09-01T11:46:46.026Z,13.90
2018-09-01T11:49:30.759Z,12.10
2018-09-01T11:52:00.893Z,17.05
2018-09-01T11:54:32.618Z,9.38
2018-09-01T11:57:03.299Z,18.75
2018-09-01T11:59:39.513Z,11.57
2018-09-01T12:02:12.193Z,14.15
2018-09-01T12:04:41.390Z,16.15
2018-09-01T12:07:15.999Z,13.75
2018-09-01T12:09:45.174Z,12.28
2018-09-01T12:12:14.155Z,11.75
2018-09-01T12:14:44.568Z,15.25
2018-09-01T12:17:13.596Z,12.20
2018-09-01T12:19:42.699Z,14.13
2018-09-01T12:22:12.861Z,10.65
2018-09-01T12:24:41.825Z,10.25
2018-09-01T12:27:10.872Z,11.18
2018-09-01T12:29:40.344Z,14.15
2018-09-01T12:32:09.208Z,13.25
2018-09-01T12:34:38.134Z,12.68
2018-09-01T12:37:07.164Z,11.60
2018-09-01T12:39:36.172Z,16.25
2018-09-01T12:42:05.784Z,14.85
2018-09-01T12:44:36.131Z,21.93
2018-09-01T12:47:15.185Z,16.90
2018-09-01T12:49:44.227Z,11.70
2018-09-01T12:52:19.553Z,13.68
2018-09-01T12:54:49.122Z,9.98
2018-09-01T12:57:23.816Z,11.73
2018-09-01T12:59:53.200Z,13.00
2018-09-01T13:02:25.231Z,12.88
2018-09-01T13:04:54.422Z,10.85
2018-09-01T13:07:24.426Z,15.88
2018-09-01T13:09:57.398Z,11.33
2018-09-01T13:12:26.566Z,11.75
2018-09-01T13:14:55.611Z,12.45
2018-09-01T13:17:25.546Z,13.45
2018-09-01T13:19:54.560Z,14.87
2018-09-01T13:22:23.466Z,12.78
2018-09-01T13:24:52.477Z,11.88
2018-09-01T13:27:21.362Z,10.40
2018-09-01T13:29:50.481Z,13.95
2018-09-01T13:32:19.492Z,15.98
2018-09-01T13:34:48.560Z,13.40
2018-09-01T13:37:17.354Z,11.05
2018-09-01T13:39:46.911Z,10.32
2018-09-01T13:42:15.801Z,9.78
2018-09-01T13:44:44.829Z,14.07
2018-09-01T13:47:13.827Z,13.15
2018-09-01T13:49:42.839Z,15.32
2018-09-01T13:52:15.879Z,11.55
2018-09-01T13:54:44.728Z,11.73
2018-09-01T13:57:13.778Z,12.07
2018-09-01T13:59:43.129Z,13.53
2018-09-01T14:02:12.083Z,10.90
2018-09-01T14:04:41.199Z,11.03
2018-09-01T14:07:10.297Z,11.73
2018-09-01T14:09:39.276Z,11.97
2018-09-01T14:12:08.209Z,13.75
2018-09-01T14:14:37.716Z,11.48
2018-09-01T14:17:06.918Z,14.18
2018-09-01T14:19:35.844Z,12.40
2018-09-01T14:22:04.814Z,11.28
2018-09-01T14:24:33.963Z,12.73
2018-09-01T14:27:02.961Z,12.50
2018-09-01T14:29:32.855Z,14.80
2018-09-01T14:32:01.729Z,12.65
2018-09-01T14:34:30.674Z,18.75
2018-09-01T14:36:59.535Z,11.60
2018-09-01T14:39:28.560Z,10.20
2018-09-01T14:41:57.566Z,13.62
2018-09-01T14:44:26.676Z,15.00
2018-09-01T14:48:25.103Z,14.55
2018-09-01T14:50:54.674Z,12.95
2018-09-01T14:53:23.725Z,11.75
2018-09-01T14:55:52.840Z,13.30
2018-09-01T14:58:22.380Z,14.80
2018-09-01T15:00:51.272Z,11.10
2018-09-01T15:03:20.175Z,15.10
2018-09-01T15:12:34.584Z,16.12
2018-09-01T15:15:03.685Z,13.38
2018-09-01T15:17:32.680Z,12.10
2018-09-01T15:20:02.302Z,16.00
2018-09-01T15:22:31.489Z,12.45
2018-09-01T15:25:00.608Z,11.78
2018-09-01T15:27:29.668Z,16.35
2018-09-01T15:29:58.594Z,15.05
2018-09-01T15:32:27.613Z,15.10
2018-09-01T15:34:56.686Z,15.00
2018-09-01T15:37:25.677Z,18.77
2018-09-01T15:39:54.646Z,12.90
2018-09-01T15:42:23.662Z,14.63
2018-09-01T15:44:52.638Z,14.03
2018-09-01T15:47:21.440Z,12.68
2018-09-01T15:49:50.362Z,14.38
2018-09-01T15:52:19.141Z,13.83
2018-09-01T15:54:48.043Z,14.25
2018-09-01T15:57:17.406Z,16.65
2018-09-01T15:59:46.267Z,12.80
2018-09-01T16:02:15.161Z,12.68
2018-09-01T16:04:45.158Z,17.30
2018-09-01T16:07:14.158Z,17.95
2018-09-01T16:09:43.085Z,14.85
2018-09-01T16:12:13.366Z,15.40
2018-09-01T16:14:42.340Z,15.58
2018-09-01T16:17:11.449Z,20.10
2018-09-01T16:19:40.501Z,12.40
2018-09-01T16:22:09.383Z,13.95
2018-09-01T16:24:38.633Z,15.43
2018-09-01T16:27:08.747Z,19.17
2018-09-01T16:29:37.736Z,19.37
2018-09-01T16:32:07.175Z,20.80
2018-09-01T16:34:36.411Z,17.45
2018-09-01T16:37:05.549Z,17.70
2018-09-01T16:39:34.661Z,18.30
2018-09-01T16:42:03.587Z,20.37
2018-09-01T16:44:32.654Z,20.32
2018-09-01T16:47:01.753Z,19.32
2018-09-01T16:49:30.982Z,24.47
2018-09-01T16:51:59.994Z,20.92
2018-09-01T16:55:32.038Z,22.70
2018-09-01T16:58:01.061Z,26.05
2018-09-01T17:00:30.105Z,29.02
2018-09-01T17:02:59.335Z,32.23
2018-09-01T17:05:28.173Z,33.55
2018-09-01T17:07:57.227Z,30.72
2018-09-01T17:10:26.441Z,25.30
2018-09-01T17:12:55.230Z,26.40
2018-09-01T17:15:24.338Z,23.05
2018-09-01T17:17:53.281Z,19.82
2018-09-01T17:21:24.926Z,24.52
2018-09-01T17:23:54.521Z,19.77
2018-09-01T17:26:23.603Z,28.32
2018-09-01T17:28:52.546Z,27.70
2018-09-01T17:31:21.386Z,27.20
2018-09-01T17:33:50.335Z,27.35
2018-09-01T17:36:19.205Z,25.82
2018-09-01T17:38:48.366Z,20.92
2018-09-01T17:41:17.332Z,26.57
2018-09-01T17:43:46.285Z,25.70
2018-09-01T17:46:15.973Z,23.12
2018-09-01T17:48:44.812Z,21.48
2018-09-01T17:51:13.821Z,25.32
2018-09-01T17:53:43.244Z,19.35
2018-09-01T17:56:12.158Z,20.95
2018-09-01T17:58:41.304Z,20.50
2018-09-01T18:01:10.478Z,18.85
2018-09-01T18:03:39.448Z,20.77
2018-09-01T18:06:08.343Z,25.17
2018-09-01T18:08:37.794Z,21.10
2018-09-01T18:11:06.882Z,28.00
2018-09-01T18:13:35.820Z,30.57
2018-09-01T18:16:05.282Z,26.05
2018-09-01T18:18:34.131Z,31.17
2018-09-01T18:21:03.081Z,30.52
2018-09-01T18:23:32.106Z,29.72
2018-09-01T18:26:01.053Z,27.10
2018-09-01T18:28:30.141Z,29.10
2018-09-01T18:30:59.419Z,31.35
2018-09-01T18:33:28.405Z,28.23
2018-09-01T18:35:57.848Z,30.23
2018-09-01T18:38:27.100Z,32.98
2018-09-01T18:40:56.066Z,27.70
2018-09-01T18:43:25.233Z,36.08
2018-09-01T18:46:57.468Z,34.35
2018-09-01T18:49:26.435Z,27.82
2018-09-01T18:51:55.353Z,24.15
2018-09-01T18:54:25.368Z,31.85
2018-09-01T18:56:54.190Z,25.35
2018-09-01T18:59:23.269Z,28.30
2018-09-01T19:01:52.387Z,28.47
2018-09-01T19:04:21.381Z,38.95
2018-09-01T19:06:50.403Z,42.78
2018-09-01T19:09:19.347Z,36.48
2018-09-01T19:11:48.184Z,43.25
2018-09-01T19:14:17.153Z,43.83
2018-09-01T19:16:46.025Z,42.27
2018-09-01T19:19:14.949Z,38.17
2018-09-01T19:21:43.984Z,34.20
2018-09-01T19:24:13.229Z,37.17
2018-09-01T19:26:42.056Z,34.58
2018-09-01T19:29:11.099Z,40.67
2018-09-01T19:31:40.313Z,36.65
2018-09-01T19:34:09.340Z,36.90
2018-09-01T19:36:38.404Z,32.08
2018-09-01T19:39:10.161Z,30.55
2018-09-01T19:41:39.253Z,26.55
2018-09-01T19:44:08.264Z,28.30
2018-09-01T19:46:37.545Z,26.87
2018-09-01T19:49:06.472Z,25.90
2018-09-01T19:51:35.362Z,23.62
2018-09-01T19:54:04.260Z,21.17
2018-09-01T19:56:33.229Z,24.90
2018-09-01T19:59:02.215Z,20.80
2018-09-01T20:01:31.486Z,20.75
2018-09-01T20:04:00.388Z,20.80
2018-09-01T20:06:29.299Z,18.85
2018-09-01T20:08:58.537Z,19.12
2018-09-01T20:11:27.463Z,18.83
2018-09-01T20:13:56.432Z,17.07
2018-09-01T20:16:25.831Z,15.00
2018-09-01T20:18:54.682Z,16.00
2018-09-01T20:21:23.637Z,18.42
2018-09-01T20:23:52.601Z,17.15
2018-09-01T20:26:21.476Z,17.27
2018-09-01T20:28:50.552Z,14.77
2018-09-01T20:31:19.735Z,17.52
2018-09-01T20:33:48.808Z,17.52
2018-09-01T20:36:20.832Z,20.73
2018-09-01T20:38:49.768Z,16.32
2018-09-01T20:41:18.793Z,17.92
2018-09-01T20:43:47.838Z,15.95
2018-09-01T20:46:16.856Z,22.23
2018-09-01T20:48:45.960Z,16.13
2018-09-01T20:51:15.593Z,17.20
2018-09-01T20:53:44.387Z,16.93
2018-09-01T20:56:13.359Z,19.02
2018-09-01T20:58:43.077Z,22.30
2018-09-01T21:01:12.022Z,19.50
2018-09-01T21:03:41.060Z,25.90
2018-09-01T21:06:10.367Z,24.13
2018-09-01T21:08:39.240Z,30.40
2018-09-01T21:11:08.222Z,26.90
2018-09-01T21:13:37.667Z,26.13
2018-09-01T21:16:06.512Z,19.80
2018-09-01T21:18:35.325Z,28.57
2018-09-01T21:21:04.711Z,22.07
2018-09-01T21:23:33.692Z,21.37
2018-09-01T21:26:02.754Z,21.83
2018-09-01T21:28:32.206Z,19.60
2018-09-01T21:31:01.054Z,17.80
2018-09-01T21:33:31.020Z,22.47
2018-09-01T21:36:00.294Z,23.30
2018-09-01T21:38:29.259Z,27.83
2018-09-01T21:40:58.307Z,26.07
2018-09-01T21:43:27.744Z,27.20
2018-09-01T21:45:56.715Z,23.33
2018-09-01T21:48:25.515Z,26.67
2018-09-01T21:50:54.834Z,23.40
2018-09-01T21:53:23.700Z,27.23
2018-09-01T21:55:52.751Z,32.53
2018-09-01T21:58:22.120Z,22.77
2018-09-01T22:00:51.689Z,25.90
2018-09-01T22:03:22.082Z,26.50
2018-09-01T22:05:51.052Z,25.10
2018-09-01T22:08:19.917Z,21.87
2018-09-01T22:10:48.819Z,25.27
2018-09-01T22:13:17.724Z,23.73
2018-09-01T22:15:46.653Z,31.07
2018-09-01T22:18:16.080Z,27.40
2018-09-01T22:20:45.035Z,27.57
2018-09-01T22:23:13.810Z,26.67
2018-09-01T22:25:43.185Z,25.50
2018-09-01T22:28:12.124Z,25.57
2018-09-01T22:30:42.092Z,23.83
2018-09-01T22:33:11.116Z,20.63
2018-09-01T22:35:40.210Z,22.10
2018-09-01T22:38:09.234Z,24.43
2018-09-01T22:40:38.738Z,22.23
2018-09-01T22:43:07.555Z,20.10
2018-09-01T22:45:36.576Z,22.20
2018-09-01T22:48:05.670Z,23.60
2018-09-01T22:50:34.642Z,29.53
2018-09-01T22:53:03.576Z,25.67
2018-09-01T22:55:32.896Z,22.93
2018-09-01T22:58:01.805Z,26.53
2018-09-01T23:00:30.698Z,25.03
2018-09-01T23:02:59.692Z,26.87
2018-09-01T23:05:28.687Z,25.40
2018-09-01T23:07:57.680Z,26.43
2018-09-01T23:10:26.849Z,25.53
2018-09-01T23:12:55.783Z,21.80
2018-09-01T23:15:24.932Z,21.23
2018-09-01T23:17:54.013Z,28.60
2018-09-01T23:20:23.095Z,24.27
2018-09-01T23:22:52.122Z,22.93
2018-09-01T23:25:21.246Z,21.73
2018-09-01T23:27:50.313Z,23.93
2018-09-01T23:30:19.335Z,24.67
2018-09-01T23:32:48.212Z,29.43
2018-09-01T23:35:17.137Z,24.00
2018-09-01T23:37:46.098Z,26.60
2018-09-01T23:40:15.950Z,24.07
2018-09-01T23:42:44.807Z,27.53
2018-09-01T23:45:13.804Z,22.80
2018-09-01T23:47:43.252Z,22.53
2018-09-01T23:50:12.229Z,22.23
2018-09-01T23:52:41.232Z,22.37
2018-09-01T23:55:10.453Z,20.20
2018-09-01T23:57:39.556Z,21.40
